Time;durP1;ratioP1;P1;durP2;ratioP2;P2;SDS_P1;SDS_P2;PMS_P1;PMS_P2;Temp;Humidity;BMP_temperature;BMP_pressure;BME280_temperature;BME280_humidity;BME280_pressure;Samples;Min_cycle;Max_cycle;Signal;HPM_P1;HPM_P2
2022/08/21 00:00:45;;;;;;;55.95;33.35;;;;;;;19.03;35.86;100267.78;5014927;28;20066;-73
2022/08/21 00:03:12;;;;;;;64.57;34.72;;;;;;;19.01;35.88;100267.31;5014212;28;20153;-73
2022/08/21 00:05:43;;;;;;;65.15;37.75;;;;;;;19.03;35.84;100262.13;5014819;28;20061;-74
2022/08/21 00:08:10;;;;;;;60.20;33.78;;;;;;;19.01;35.82;100275.78;5014470;28;20092;-74
2022/08/21 00:10:39;;;;;;;70.35;36.08;;;;;;;19.01;35.86;100267.31;5007682;28;20081;-73
2022/08/21 00:13:07;;;;;;;58.10;32.17;;;;;;;18.98;35.74;100270.88;4996878;28;20078;-74
2022/08/21 00:15:36;;;;;;;65.03;34.45;;;;;;;18.97;35.80;100274.91;5014095;28;20104;-72
2022/08/21 00:18:04;;;;;;;64.72;33.92;;;;;;;18.94;35.89;100267.19;5013926;28;20065;-72
2022/08/21 00:20:32;;;;;;;61.03;35.70;;;;;;;18.90;35.70;100269.13;5014228;28;20410;-73
2022/08/21 00:22:59;;;;;;;62.60;36.05;;;;;;;18.83;35.81;100263.31;5002555;28;20061;-73
2022/08/21 00:25:27;;;;;;;61.28;34.22;;;;;;;18.80;36.01;100266.88;5034009;28;20104;-72
2022/08/21 00:27:55;;;;;;;68.50;36.63;;;;;;;18.76;36.04;100268.81;5034073;28;20057;-72
2022/08/21 00:30:27;;;;;;;66.72;36.47;;;;;;;18.76;36.09;100267.97;5016442;28;20057;-72
2022/08/21 00:32:56;;;;;;;69.00;39.63;;;;;;;18.74;36.33;100273.19;5033689;28;20165;-72
2022/08/21 00:35:30;;;;;;;64.53;36.57;;;;;;;18.69;36.27;100277.13;4994483;28;20074;-73
2022/08/21 00:37:57;;;;;;;62.53;34.28;;;;;;;18.65;36.85;100272.59;4994249;28;20349;-73
2022/08/21 00:40:34;;;;;;;66.38;38.65;;;;;;;18.62;36.53;100268.50;4994612;28;20105;-73
2022/08/21 00:43:04;;;;;;;76.53;37.45;;;;;;;18.59;36.46;100263.59;4993833;28;20058;-73
2022/08/21 00:45:31;;;;;;;70.97;36.42;;;;;;;18.55;36.60;100273.16;4995009;28;20058;-72
2022/08/21 00:48:01;;;;;;;61.17;35.17;;;;;;;18.52;36.66;100257.81;4994236;28;20057;-73
2022/08/21 00:50:33;;;;;;;68.20;35.22;;;;;;;18.53;36.48;100255.81;4977676;28;20066;-73
2022/08/21 00:53:03;;;;;;;67.25;37.58;;;;;;;18.50;36.71;100265.81;4994108;28;20513;-69
2022/08/21 00:55:30;;;;;;;;;;;;;;;18.33;37.02;100254.94;4994490;28;20082;-68
2022/08/21 00:58:00;;;;;;;64.03;36.05;;;;;;;18.32;37.04;100270.16;4993860;28;20020;-68
2022/08/21 01:00:32;;;;;;;61.77;35.87;;;;;;;18.29;37.01;100254.00;4985004;28;20066;-69
2022/08/21 01:03:08;;;;;;;57.72;34.83;;;;;;;18.29;37.11;100265.28;5000518;28;20061;-68
2022/08/21 01:05:36;;;;;;;76.97;37.85;;;;;;;18.27;37.30;100266.84;5013128;28;20064;-69
2022/08/21 01:08:05;;;;;;;61.42;34.15;;;;;;;18.24;37.23;100262.75;5013276;28;20054;-68
2022/08/21 01:10:32;;;;;;;68.18;34.63;;;;;;;18.19;37.34;100266.69;5018178;28;20112;-68
2022/08/21 01:12:59;;;;;;;62.17;34.88;;;;;;;18.16;37.34;100272.22;5032487;28;20104;-68
2022/08/21 01:15:33;;;;;;;62.88;33.92;;;;;;;18.15;37.30;100279.84;5033250;28;20057;-68
2022/08/21 01:18:00;;;;;;;60.88;35.33;;;;;;;18.11;37.54;100270.50;5032616;28;20065;-69
2022/08/21 01:20:27;;;;;;;64.70;34.70;;;;;;;18.09;37.49;100260.78;5032931;28;20054;-68
2022/08/21 01:22:59;;;;;;;65.90;34.35;;;;;;;18.05;37.60;100259.84;5032857;28;20080;-68
2022/08/21 01:25:26;;;;;;;68.85;35.58;;;;;;;18.02;37.47;100260.59;5032904;28;20493;-69
2022/08/21 01:27:53;;;;;;;58.63;33.40;;;;;;;17.98;37.81;100259.69;5032198;28;20119;-69
2022/08/21 01:30:23;;;;;;;68.30;35.47;;;;;;;17.98;37.58;100263.34;5032768;28;20103;-68
2022/08/21 01:32:52;;;;;;;63.20;35.67;;;;;;;17.95;37.96;100260.44;5032656;28;20061;-69
2022/08/21 01:35:20;;;;;;;69.45;34.75;;;;;;;17.91;38.10;100251.06;5013661;28;20061;-69
2022/08/21 01:37:47;;;;;;;64.47;34.33;;;;;;;17.91;37.87;100256.69;5013622;28;20096;-69
2022/08/21 01:40:16;;;;;;;62.30;35.10;;;;;;;17.92;37.90;100261.16;5012637;28;20108;-69
2022/08/21 01:42:45;;;;;;;58.63;30.83;;;;;;;17.87;37.92;100265.06;5012902;28;20481;-69
2022/08/21 01:45:13;;;;;;;59.63;34.97;;;;;;;17.88;37.92;100265.84;4996073;28;20068;-69
2022/08/21 01:47:39;;;;;;;60.63;32.60;;;;;;;17.85;38.01;100249.69;5012760;28;20464;-68
2022/08/21 01:50:10;;;;;;;61.80;31.38;;;;;;;17.84;38.19;100253.69;5012850;28;20100;-69
2022/08/21 01:52:37;;;;;;;62.95;32.17;;;;;;;17.81;38.09;100254.44;5012695;28;20537;-68
2022/08/21 01:55:06;;;;;;;57.47;29.88;;;;;;;17.82;38.23;100261.69;5012746;28;20115;-68
2022/08/21 01:57:33;;;;;;;58.45;34.33;;;;;;;17.80;38.33;100261.25;5012748;28;20057;-69
2022/08/21 02:00:01;;;;;;;53.90;29.58;;;;;;;17.76;37.89;100263.13;5012673;28;20061;-69
2022/08/21 02:02:28;;;;;;;60.40;29.50;;;;;;;17.76;38.14;100263.13;4995256;28;20058;-69
2022/08/21 02:04:56;;;;;;;58.25;28.88;;;;;;;17.73;38.05;100278.75;5014459;28;20601;-69
2022/08/21 02:07:23;;;;;;;57.03;28.80;;;;;;;17.71;38.03;100274.69;5032296;28;20049;-69
2022/08/21 02:09:50;;;;;;;52.50;27.92;;;;;;;17.68;38.36;100266.97;5032400;28;20057;-69
2022/08/21 02:12:16;;;;;;;52.33;28.10;;;;;;;17.69;38.40;100268.59;5013041;28;20433;-69
2022/08/21 02:15:05;;;;;;;50.88;27.25;;;;;;;17.67;38.32;100273.75;4998370;28;20058;-73
2022/08/21 02:17:59;;;;;;;51.70;28.23;;;;;;;17.66;38.27;100263.69;5012505;28;20136;-73
2022/08/21 02:20:47;;;;;;;57.35;27.75;;;;;;;17.66;38.36;100269.31;5009525;28;20064;-72
2022/08/21 02:23:22;;;;;;;65.47;27.67;;;;;;;17.63;38.33;100258.78;5013443;28;20087;-72
2022/08/21 02:25:54;;;;;;;49.10;27.00;;;;;;;17.65;38.27;100267.69;4995185;28;20061;-72
2022/08/21 02:28:21;;;;;;;54.35;28.33;;;;;;;17.64;38.23;100261.25;5012941;28;20100;-73
2022/08/21 02:30:50;;;;;;;56.85;28.88;;;;;;;17.64;38.29;100274.47;5012581;28;20471;-73
2022/08/21 02:33:21;;;;;;;53.58;27.70;;;;;;;17.64;38.36;100266.03;5012206;28;20061;-73
2022/08/21 02:35:48;;;;;;;54.47;28.25;;;;;;;17.65;38.21;100268.50;5008482;28;20068;-73
2022/08/21 02:38:19;;;;;;;46.80;25.63;;;;;;;17.66;38.48;100272.97;5014793;28;20483;-73
2022/08/21 02:40:50;;;;;;;48.35;26.92;;;;;;;17.66;38.49;100280.56;5017844;28;20057;-74
2022/08/21 02:43:19;;;;;;;50.78;26.45;;;;;;;17.67;38.67;100280.22;5035930;28;20064;-74
2022/08/21 02:45:47;;;;;;;47.22;24.75;;;;;;;17.65;38.67;100270.50;5017566;28;20058;-74
2022/08/21 02:48:20;;;;;;;51.40;26.98;;;;;;;17.66;38.66;100277.75;5015639;28;20058;-75
2022/08/21 02:50:59;;;;;;;51.50;26.30;;;;;;;17.65;38.53;100276.13;5016527;28;20060;-75
2022/08/21 02:53:26;;;;;;;51.77;23.93;;;;;;;17.64;38.58;100268.84;5015964;28;20062;-74
2022/08/21 02:55:56;;;;;;;44.00;24.63;;;;;;;17.66;38.46;100272.97;4998961;28;20077;-74
2022/08/21 02:58:27;;;;;;;51.20;23.10;;;;;;;17.67;38.63;100268.13;5015719;28;20060;-69
2022/08/21 03:00:54;;;;;;;51.10;25.08;;;;;;;17.71;38.38;100271.88;5015615;28;20108;-69
2022/08/21 03:03:22;;;;;;;41.95;24.17;;;;;;;17.76;38.32;100277.22;4998037;28;20064;-69
2022/08/21 03:05:49;;;;;;;50.30;24.95;;;;;;;17.80;38.50;100287.38;5016151;28;20114;-68
2022/08/21 03:08:17;;;;;;;46.03;24.80;;;;;;;17.79;38.41;100290.56;5015442;28;20060;-68
2022/08/21 03:10:52;;;;;;;50.40;26.00;;;;;;;17.79;38.63;100296.19;5015074;28;20057;-69
2022/08/21 03:13:20;;;;;;;47.33;25.15;;;;;;;17.73;38.68;100275.94;5015705;28;20077;-68
2022/08/21 03:15:48;;;;;;;45.55;24.48;;;;;;;17.76;38.69;100274.41;4998272;28;20057;-72
2022/08/21 03:18:16;;;;;;;44.50;24.55;;;;;;;17.82;38.69;100267.31;5015013;28;20054;-72
2022/08/21 03:20:44;;;;;;;43.58;24.17;;;;;;;17.88;38.52;100269.50;5016271;28;20064;-72
2022/08/21 03:23:12;;;;;;;42.00;24.63;;;;;;;17.91;38.48;100284.84;5015205;28;20058;-73
2022/08/21 03:25:45;;;;;;;48.42;25.35;;;;;;;17.93;38.28;100277.69;5015292;28;20467;-72
2022/08/21 03:28:16;;;;;;;46.42;24.40;;;;;;;17.95;38.54;100280.94;5015478;28;20058;-72
2022/08/21 03:30:46;;;;;;;48.22;25.15;;;;;;;17.98;38.30;100283.06;5015569;28;20066;-72
2022/08/21 03:33:14;;;;;;;36.90;22.77;;;;;;;18.02;38.22;100288.75;4997844;28;20458;-72
2022/08/21 03:35:43;;;;;;;47.55;25.20;;;;;;;18.03;38.28;100287.59;5015159;28;20136;-73
2022/08/21 03:38:12;;;;;;;41.97;22.90;;;;;;;18.00;38.28;100282.69;5014911;28;20461;-73
2022/08/21 03:40:41;;;;;;;44.53;23.57;;;;;;;17.99;38.34;100289.47;5015808;28;20081;-72
2022/08/21 03:43:09;;;;;;;42.90;22.27;;;;;;;17.98;38.33;100293.47;5014856;28;20062;-72
2022/08/21 03:45:37;;;;;;;40.28;22.75;;;;;;;18.00;38.21;100288.31;5014861;28;20053;-73
2022/08/21 03:48:05;;;;;;;43.80;22.67;;;;;;;17.99;38.16;100281.03;5014804;28;20398;-73
2022/08/21 03:50:36;;;;;;;43.80;22.25;;;;;;;18.03;38.33;100302.47;5014224;28;20069;-73
2022/08/21 03:53:09;;;;;;;42.72;22.45;;;;;;;18.00;38.15;100288.31;5014680;28;20136;-73
2022/08/21 03:55:46;;;;;;;39.55;21.95;;;;;;;18.05;38.19;100288.03;5014448;28;20157;-73
2022/08/21 03:58:15;;;;;;;41.78;22.00;;;;;;;18.10;38.02;100290.56;5014881;28;20453;-73
2022/08/21 04:00:45;;;;;;;43.05;21.13;;;;;;;18.10;37.82;100285.75;5014969;28;20062;-72
2022/08/21 04:03:12;;;;;;;40.40;22.60;;;;;;;18.13;37.68;100287.03;5014483;28;20057;-72
2022/08/21 04:05:40;;;;;;;41.47;21.88;;;;;;;18.20;37.41;100284.38;5014528;28;20058;-72
2022/08/21 04:08:07;;;;;;;49.17;23.52;;;;;;;18.25;37.48;100284.09;5014369;28;20060;-73
2022/08/21 04:10:36;;;;;;;39.70;21.63;;;;;;;18.31;37.54;100279.81;5017112;28;20560;-73
2022/08/21 04:13:05;;;;;;;44.40;23.33;;;;;;;18.34;37.53;100279.09;5014365;28;20065;-72
2022/08/21 04:15:32;;;;;;;39.03;22.23;;;;;;;18.41;37.15;100287.72;5014305;28;20061;-73
2022/08/21 04:17:59;;;;;;;38.38;22.67;;;;;;;18.47;37.12;100277.81;5014273;28;20054;-72
2022/08/21 04:20:26;;;;;;;36.67;21.08;;;;;;;18.50;36.97;100282.69;5013827;28;20081;-72
2022/08/21 04:22:55;;;;;;;41.20;23.42;;;;;;;18.51;37.07;100283.53;5014158;28;20476;-73
2022/08/21 04:25:25;;;;;;;40.33;23.90;;;;;;;18.48;36.89;100285.09;5014262;28;20456;-74
2022/08/21 04:27:52;;;;;;;40.97;21.95;;;;;;;18.47;36.94;100283.44;4997312;28;20097;-72
2022/08/21 04:30:23;;;;;;;40.15;22.20;;;;;;;18.51;36.86;100284.34;5014128;28;20061;-72
2022/08/21 04:32:56;;;;;;;35.95;21.05;;;;;;;18.56;36.76;100275.59;5013741;28;20065;-72
2022/08/21 04:35:25;;;;;;;44.15;22.73;;;;;;;18.62;36.81;100285.41;4996815;28;20064;-73
2022/08/21 04:37:52;;;;;;;46.53;22.70;;;;;;;18.64;36.79;100283.03;4996305;28;20096;-73
2022/08/21 04:40:21;;;;;;;41.88;23.23;;;;;;;18.71;36.68;100290.84;5013951;28;20092;-72
2022/08/21 04:42:59;;;;;;;40.13;22.67;;;;;;;18.74;36.23;100278.84;5013891;28;20081;-73
2022/08/21 04:45:30;;;;;;;49.10;25.40;;;;;;;18.73;36.33;100302.53;5014497;28;20057;-72
2022/08/21 04:47:59;;;;;;;36.78;22.42;;;;;;;18.77;36.26;100295.81;5013708;28;20054;-73
2022/08/21 04:50:31;;;;;;;44.75;24.02;;;;;;;18.82;36.21;100294.69;5013632;28;20061;-72
2022/08/21 04:52:59;;;;;;;47.72;24.63;;;;;;;18.83;36.29;100294.31;5013527;28;20058;-72
2022/08/21 04:55:28;;;;;;;42.95;25.98;;;;;;;18.89;36.34;100295.66;5013886;28;20057;-72
2022/08/21 04:57:56;;;;;;;48.50;25.30;;;;;;;18.94;36.30;100286.09;5014176;28;20050;-73
2022/08/21 05:00:25;;;;;;;44.03;25.27;;;;;;;19.00;36.15;100293.91;5013465;28;20081;-72
2022/08/21 05:02:56;;;;;;;55.45;28.20;;;;;;;19.04;36.02;100291.97;5017577;28;20049;-73
2022/08/21 05:05:23;;;;;;;48.72;27.35;;;;;;;19.06;35.93;100292.41;5015841;28;20061;-73
2022/08/21 05:07:52;;;;;;;44.25;26.33;;;;;;;19.15;35.87;100293.00;5033060;28;20129;-73
2022/08/21 05:10:20;;;;;;;52.80;27.43;;;;;;;19.26;35.80;100296.03;5026205;28;20093;-71
2022/08/21 05:12:47;;;;;;;50.53;28.88;;;;;;;19.33;35.59;100294.22;5013157;28;20058;-73
2022/08/21 05:15:14;;;;;;;62.92;29.30;;;;;;;19.42;35.51;100291.97;5013247;28;20060;-73
2022/08/21 05:17:41;;;;;;;51.03;29.73;;;;;;;19.48;35.41;100276.38;5012870;28;20050;-72
2022/08/21 05:20:09;;;;;;;51.92;27.77;;;;;;;19.63;35.29;100286.72;5012843;28;20064;-73
2022/08/21 05:22:37;;;;;;;55.03;31.88;;;;;;;19.75;34.93;100286.56;5013264;28;20054;-73
2022/08/21 05:25:06;;;;;;;54.20;29.08;;;;;;;19.82;34.65;100288.69;5013055;28;20100;-73
2022/08/21 05:27:38;;;;;;;58.50;31.95;;;;;;;19.87;34.61;100286.38;5013096;28;20057;-69
2022/08/21 05:30:09;;;;;;;57.92;30.10;;;;;;;19.88;34.34;100290.84;5013622;28;20066;-69
2022/08/21 05:32:36;;;;;;;54.22;29.90;;;;;;;19.90;34.74;100282.78;5013008;28;20058;-68
2022/08/21 05:35:05;;;;;;;53.83;31.42;;;;;;;20.01;34.28;100268.84;5013023;28;20128;-70
2022/08/21 05:37:32;;;;;;;52.63;31.90;;;;;;;20.08;34.19;100285.09;5012982;28;20062;-74
2022/08/21 05:40:01;;;;;;;54.50;31.60;;;;;;;20.21;33.46;100278.06;5012958;28;20065;-74
2022/08/21 05:42:48;;;;;;;56.97;31.15;;;;;;;20.46;33.40;100282.94;5022207;28;20584;-74
2022/08/21 05:45:30;;;;;;;61.72;30.00;;;;;;;20.91;32.58;100301.78;5032312;28;20061;-73
2022/08/21 05:48:12;;;;;;;52.47;30.35;;;;;;;21.82;31.11;100279.44;5032828;28;20054;-73
2022/08/21 05:50:39;;;;;;;58.80;30.45;;;;;;;22.87;29.50;100277.44;5027102;28;20058;-74
2022/08/21 05:53:06;;;;;;;56.00;28.42;;;;;;;25.13;26.27;100271.59;5022213;28;20053;-74
2022/08/21 05:55:36;;;;;;;46.40;27.90;;;;;;;26.37;24.93;100276.13;5032492;28;20099;-74
2022/08/21 05:58:11;;;;;;;47.65;29.15;;;;;;;28.24;22.71;100272.56;5032261;28;20119;-68
2022/08/21 06:00:39;;;;;;;51.20;27.13;;;;;;;29.70;20.45;100272.22;5001299;28;20057;-69
2022/08/21 06:03:11;;;;;;;47.03;27.55;;;;;;;29.83;20.22;100273.13;5012395;28;20112;-69
2022/08/21 06:05:38;;;;;;;48.42;28.20;;;;;;;28.35;21.50;100272.38;4979258;28;20057;-70
2022/08/21 06:08:05;;;;;;;54.45;28.65;;;;;;;27.81;21.71;100270.78;5012595;28;20108;-70
2022/08/21 06:10:32;;;;;;;42.92;26.02;;;;;;;27.33;21.97;100267.38;5012493;28;20058;-69
2022/08/21 06:12:59;;;;;;;39.28;25.83;;;;;;;26.77;22.65;100269.63;5013683;28;20116;-70
2022/08/21 06:15:26;;;;;;;42.67;25.92;;;;;;;27.24;21.94;100259.31;5017511;28;20057;-69
2022/08/21 06:17:53;;;;;;;47.00;27.17;;;;;;;28.39;21.08;100268.22;5016267;28;20064;-69
2022/08/21 06:20:22;;;;;;;43.25;25.50;;;;;;;29.77;19.38;100267.13;5016762;28;20132;-70
2022/08/21 06:22:49;;;;;;;41.60;27.17;;;;;;;28.76;20.40;100264.31;5016868;28;20092;-75
2022/08/21 06:25:17;;;;;;;42.38;26.88;;;;;;;27.02;22.02;100260.00;4999585;28;20066;-75
2022/08/21 06:27:43;;;;;;;49.65;27.40;;;;;;;26.15;23.01;100265.34;5016142;28;20480;-75
2022/08/21 06:30:11;;;;;;;46.92;25.88;;;;;;;25.47;23.75;100280.41;5016962;28;20084;-75
2022/08/21 06:32:38;;;;;;;42.08;24.73;;;;;;;24.98;24.47;100270.84;5016223;28;20156;-74
2022/08/21 06:35:06;;;;;;;46.60;28.02;;;;;;;25.24;23.72;100260.97;5016188;28;20092;-75
2022/08/21 06:37:33;;;;;;;47.35;28.30;;;;;;;25.51;24.14;100258.41;5016268;28;20057;-75
2022/08/21 06:40:00;;;;;;;52.67;28.02;;;;;;;25.19;24.38;100255.69;5016206;28;20501;-77
2022/08/21 06:42:29;;;;;;;46.05;26.27;;;;;;;24.83;25.12;100259.91;5016102;28;20053;-73
2022/08/21 06:44:57;;;;;;;46.75;27.02;;;;;;;24.66;25.00;100255.09;5016023;28;20116;-74
2022/08/21 06:47:24;;;;;;;51.72;25.98;;;;;;;25.26;24.77;100258.53;5015960;28;20061;-74
2022/08/21 06:49:51;;;;;;;44.83;27.88;;;;;;;25.76;23.94;100257.06;5016009;28;20468;-75
2022/08/21 06:52:21;;;;;;;38.17;24.38;;;;;;;25.34;24.43;100260.13;4998577;28;20064;-74
2022/08/21 06:54:48;;;;;;;;;;;;;;;24.78;25.19;100260.34;5016317;28;20053;-74
2022/08/21 06:57:15;;;;;;;45.97;26.20;;;;;;;24.50;25.31;100266.03;5015842;28;19980;-75
2022/08/21 06:59:42;;;;;;;50.72;26.45;;;;;;;24.28;25.92;100255.91;5015377;28;20112;-75
2022/08/21 07:02:10;;;;;;;46.55;25.77;;;;;;;24.25;26.00;100254.69;5015601;28;20513;-75
2022/08/21 07:04:37;;;;;;;44.10;25.45;;;;;;;24.29;25.94;100244.13;5015403;28;20061;-75
2022/08/21 07:07:04;;;;;;;48.17;26.40;;;;;;;24.39;26.00;100237.63;5015582;28;20120;-74
2022/08/21 07:09:31;;;;;;;48.20;27.83;;;;;;;24.47;25.95;100233.53;5015927;28;20054;-75
2022/08/21 07:11:58;;;;;;;51.25;27.98;;;;;;;24.83;25.10;100245.66;5015236;28;20538;-74
2022/08/21 07:14:24;;;;;;;46.60;23.85;;;;;;;25.02;24.65;100245.22;5015978;28;20120;-74
2022/08/21 07:16:51;;;;;;;36.30;22.63;;;;;;;24.95;24.26;100250.91;5015076;28;20061;-75
2022/08/21 07:19:19;;;;;;;44.17;21.85;;;;;;;26.40;22.15;100249.63;5014989;28;20100;-73
2022/08/21 07:21:46;;;;;;;40.30;22.35;;;;;;;26.96;21.58;100236.78;5015043;28;20054;-75
2022/08/21 07:24:14;;;;;;;40.42;22.88;;;;;;;26.79;21.95;100224.34;5014720;28;20300;-74
2022/08/21 07:26:41;;;;;;;47.20;23.90;;;;;;;27.70;21.55;100235.81;5014787;28;20425;-74
2022/08/21 07:29:08;;;;;;;45.00;21.60;;;;;;;29.95;18.68;100253.16;4997740;28;20053;-74
2022/08/21 07:31:35;;;;;;;40.72;23.55;;;;;;;32.63;16.33;100220.13;5015058;28;20080;-73
2022/08/21 07:34:02;;;;;;;38.47;22.45;;;;;;;33.93;14.97;100232.47;5014754;28;20058;-74
2022/08/21 07:36:29;;;;;;;48.90;25.20;;;;;;;35.80;13.95;100235.19;5015140;28;20464;-73
2022/08/21 07:38:59;;;;;;;35.28;21.30;;;;;;;36.99;13.22;100242.75;5015620;28;20088;-74
2022/08/21 07:41:28;;;;;;;47.10;22.00;;;;;;;38.02;12.31;100244.44;5015012;28;20061;-75
2022/08/21 07:43:57;;;;;;;36.28;21.48;;;;;;;38.68;11.90;100233.84;4997490;28;20058;-74
2022/08/21 07:46:25;;;;;;;34.55;21.23;;;;;;;38.73;11.33;100258.50;5014665;28;20065;-75
2022/08/21 07:48:52;;;;;;;41.03;21.83;;;;;;;38.61;11.61;100257.56;4997236;28;20409;-75
2022/08/21 07:51:23;;;;;;;31.45;21.10;;;;;;;39.46;10.45;100241.47;5014832;28;20145;-74
2022/08/21 07:53:52;;;;;;;27.95;18.02;;;;;;;41.07;9.66;100226.72;5014764;28;20058;-70
2022/08/21 07:56:19;;;;;;;28.95;19.67;;;;;;;42.76;8.49;100221.47;5014633;28;20513;-69
2022/08/21 07:58:47;;;;;;;37.13;20.02;;;;;;;43.62;8.21;100254.34;4996790;28;20112;-69
2022/08/21 08:01:14;;;;;;;35.97;21.97;;;;;;;42.62;8.57;100225.50;4996754;28;20484;-69
2022/08/21 08:03:41;;;;;;;34.80;18.83;;;;;;;42.30;8.17;100221.31;5014555;28;20053;-72
2022/08/21 08:06:11;;;;;;;33.47;18.38;;;;;;;40.34;9.48;100224.75;5014194;28;20057;-73
2022/08/21 08:08:40;;;;;;;34.50;19.40;;;;;;;38.31;10.38;100215.34;5014394;28;20137;-72
2022/08/21 08:11:12;;;;;;;30.75;19.50;;;;;;;38.03;10.79;100211.16;5014261;28;20517;-71
2022/08/21 08:13:41;;;;;;;40.90;19.73;;;;;;;38.84;10.17;100212.91;5014883;28;20084;-73
2022/08/21 08:16:08;;;;;;;30.85;18.95;;;;;;;39.26;9.81;100212.34;5014342;28;20406;-73
2022/08/21 08:18:35;;;;;;;34.35;18.90;;;;;;;38.04;10.70;100210.66;5013484;28;20155;-73
2022/08/21 08:21:03;;;;;;;41.83;20.98;;;;;;;35.53;12.20;100205.50;5014309;28;20062;-72
2022/08/21 08:23:30;;;;;;;35.72;19.63;;;;;;;34.47;12.61;100209.53;5013820;28;20112;-73
2022/08/21 08:25:59;;;;;;;31.05;18.88;;;;;;;34.89;12.46;100196.09;5013880;28;20061;-72
2022/08/21 08:28:27;;;;;;;31.25;19.40;;;;;;;36.83;11.40;100201.78;5014085;28;20476;-73
2022/08/21 08:30:53;;;;;;;37.95;20.48;;;;;;;38.46;10.21;100198.63;5014355;28;20068;-72
2022/08/21 08:33:23;;;;;;;34.05;20.08;;;;;;;37.59;11.17;100201.72;5014029;28;20096;-72
2022/08/21 08:35:51;;;;;;;41.28;23.90;;;;;;;35.62;12.11;100208.38;5014690;28;20077;-72
2022/08/21 08:38:21;;;;;;;40.25;22.08;;;;;;;34.36;12.95;100203.38;5013588;28;20064;-74
2022/08/21 08:41:12;;;;;;;38.58;22.17;;;;;;;36.94;11.75;100187.53;5014783;28;20057;-73
2022/08/21 08:43:42;;;;;;;40.60;23.38;;;;;;;38.61;10.21;100189.84;5013793;28;20057;-73
2022/08/21 08:46:15;;;;;;;30.88;18.00;;;;;;;39.04;9.61;100192.53;5013741;28;20394;-73
2022/08/21 08:48:59;;;;;;;39.88;17.90;;;;;;;40.06;9.29;100182.91;5013540;28;20053;-73
2022/08/21 08:51:53;;;;;;;31.52;18.05;;;;;;;37.93;10.33;100225.03;5014183;28;20054;-72
2022/08/21 08:55:08;;;;;;;31.00;17.35;;;;;;;34.10;13.01;100213.63;5013707;28;20104;-72
2022/08/21 08:57:37;;;;;;;42.83;19.13;;;;;;;32.62;13.68;100202.03;5006668;28;20068;-72
2022/08/21 09:00:09;;;;;;;39.40;17.50;;;;;;;32.09;14.57;100203.09;5013445;28;20057;-72
2022/08/21 09:02:42;;;;;;;34.13;18.15;;;;;;;31.31;15.07;100193.25;5013120;28;20058;-72
2022/08/21 09:05:22;;;;;;;29.35;16.90;;;;;;;30.67;15.96;100198.41;5013362;28;20536;-72
2022/08/21 09:07:58;;;;;;;28.48;16.50;;;;;;;30.32;16.25;100205.09;5013045;28;20054;-73
2022/08/21 09:10:48;;;;;;;41.22;16.70;;;;;;;30.12;16.01;100200.25;5013221;28;20061;-72
2022/08/21 09:13:31;;;;;;;30.52;15.02;;;;;;;29.82;16.11;100192.00;5013161;28;20406;-74
2022/08/21 09:16:39;;;;;;;32.67;14.98;;;;;;;29.34;16.77;100214.78;5012901;28;20069;-74
2022/08/21 09:19:37;;;;;;;37.22;15.35;;;;;;;28.92;16.72;100198.50;5002229;28;20050;-75
2022/08/21 09:22:15;;;;;;;46.10;21.45;;;;;;;28.99;16.80;100186.91;5013011;28;20120;-74
2022/08/21 09:24:48;;;;;;;27.60;14.43;;;;;;;29.22;16.88;100194.63;5013132;28;20053;-68
2022/08/21 09:27:19;;;;;;;25.65;13.57;;;;;;;29.38;16.95;100192.59;5013037;28;20062;-69
2022/08/21 09:29:50;;;;;;;32.28;15.43;;;;;;;29.41;16.83;100197.47;5013052;28;20112;-68
2022/08/21 09:32:24;;;;;;;34.45;15.50;;;;;;;29.92;16.50;100199.53;5013021;28;20054;-68
2022/08/21 09:35:05;;;;;;;34.13;14.88;;;;;;;31.06;15.65;100192.34;5013076;28;20477;-69
2022/08/21 09:37:44;;;;;;;27.98;16.15;;;;;;;32.71;14.51;100181.16;5012792;28;20509;-69
2022/08/21 09:40:47;;;;;;;25.85;14.90;;;;;;;32.69;14.18;100180.81;5012848;28;20120;-68
2022/08/21 09:43:14;;;;;;;22.33;13.02;;;;;;;31.93;14.99;100177.28;5010097;28;20072;-68
2022/08/21 09:45:43;;;;;;;25.02;12.75;;;;;;;30.81;16.14;100172.19;5012701;28;20100;-69
2022/08/21 09:48:17;;;;;;;24.88;11.85;;;;;;;30.06;16.28;100176.22;5012714;28;20061;-68
2022/08/21 09:50:47;;;;;;;21.30;10.10;;;;;;;29.46;17.02;100181.78;5013211;28;20061;-68
2022/08/21 09:53:19;;;;;;;20.83;10.20;;;;;;;28.96;17.26;100187.78;5016110;28;20061;-69
2022/08/21 09:58:44;;;;;;;19.10;9.50;;;;;;;27.91;17.65;100189.75;5032361;28;20061;-72
2022/08/21 10:01:24;;;;;;;21.42;9.00;;;;;;;27.56;17.97;100190.31;5032444;28;20061;-68
2022/08/21 10:04:07;;;;;;;20.85;8.13;;;;;;;27.19;18.50;100185.50;5032418;28;20053;-67
2022/08/21 10:06:35;;;;;;;12.15;6.82;;;;;;;27.03;18.82;100195.91;5032477;28;20057;-70
2022/08/21 10:09:12;;;;;;;38.65;18.40;;;;;;;26.77;18.87;100198.25;5032085;28;20061;-70
2022/08/21 10:12:06;;;;;;;23.83;7.30;;;;;;;26.57;19.06;100180.13;5011242;28;20093;-70
2022/08/21 10:15:29;;;;;;;13.85;6.43;;;;;;;26.61;19.30;100175.19;5011015;28;20061;-69
2022/08/21 10:18:05;;;;;;;16.42;7.07;;;;;;;26.79;18.88;100172.97;4968415;28;20057;-68
2022/08/21 10:20:42;;;;;;;16.02;6.35;;;;;;;26.75;19.21;100180.75;4992575;28;20054;-69
2022/08/21 10:23:21;;;;;;;18.40;6.82;;;;;;;26.73;19.04;100177.50;4993143;28;20061;-67
2022/08/21 10:25:57;;;;;;;15.73;6.65;;;;;;;26.59;19.30;100168.28;4992961;28;20109;-68
2022/08/21 10:28:47;;;;;;;14.52;7.57;;;;;;;26.43;19.56;100170.91;4992981;28;20055;-69
2022/08/21 10:31:30;;;;;;;15.35;6.95;;;;;;;26.29;19.71;100169.00;4992788;28;20096;-68
2022/08/21 10:34:19;;;;;;;18.33;9.43;;;;;;;26.29;19.89;100157.59;4992724;28;20088;-68
2022/08/21 10:37:10;;;;;;;29.35;8.50;;;;;;;26.35;20.23;100155.91;4973475;28;20055;-68
2022/08/21 10:39:50;;;;;;;18.10;8.23;;;;;;;26.52;20.17;100159.78;4973261;28;20058;-75
2022/08/21 10:42:35;;;;;;;20.73;7.40;;;;;;;26.53;20.10;100162.22;4956317;28;20058;-69
2022/08/21 10:45:15;;;;;;;17.02;7.97;;;;;;;26.50;20.18;100151.66;4973451;28;20090;-69
2022/08/21 10:47:48;;;;;;;17.35;7.28;;;;;;;26.55;20.24;100158.94;4972832;28;20059;-69
2022/08/21 10:50:46;;;;;;;18.20;7.60;;;;;;;26.61;20.43;100138.06;4973155;28;20462;-69
2022/08/21 10:53:46;;;;;;;17.42;6.85;;;;;;;26.60;20.42;100145.03;4973057;28;20113;-69
2022/08/21 10:56:21;;;;;;;14.90;5.40;;;;;;;26.44;20.35;100130.53;4973472;28;20058;-69
2022/08/21 10:59:07;;;;;;;13.93;5.90;;;;;;;26.37;20.16;100133.47;4973774;28;20502;-69
2022/08/21 11:01:49;;;;;;;17.92;4.63;;;;;;;26.33;20.17;100138.41;4992632;28;20727;-68
2022/08/21 11:04:36;;;;;;;12.75;4.63;;;;;;;26.22;19.86;100142.59;4996078;28;20054;-69
2022/08/21 11:07:25;;;;;;;10.38;4.10;;;;;;;26.09;20.00;100135.81;4995944;28;20062;-69
2022/08/21 11:10:05;;;;;;;11.60;4.32;;;;;;;26.11;19.71;100139.06;4995784;28;20522;-69
2022/08/21 11:12:47;;;;;;;8.85;3.17;;;;;;;26.03;20.01;100137.50;4995888;28;20066;-69
2022/08/21 11:15:43;;;;;;;14.35;3.40;;;;;;;26.06;19.95;100143.19;4995922;28;20449;-69
2022/08/21 11:18:13;;;;;;;9.15;3.85;;;;;;;26.17;19.87;100132.47;4958556;28;20116;-69
2022/08/21 11:20:43;;;;;;;;;;;;;;;26.16;19.76;100139.41;5015766;28;20468;-69
2022/08/21 11:23:24;;;;;;;11.57;4.32;;;;;;;26.33;19.75;100141.28;4997936;28;19925;-68
2022/08/21 11:26:19;;;;;;;14.15;3.45;;;;;;;26.35;19.93;100150.19;5015657;28;20444;-70
2022/08/21 11:28:55;;;;;;;4.43;2.67;;;;;;;26.35;19.82;100143.69;5015166;28;20068;-69
2022/08/21 11:31:22;;;;;;;10.63;2.95;;;;;;;26.29;20.08;100157.59;5015127;28;20092;-70
2022/08/21 11:34:04;;;;;;;15.95;4.88;;;;;;;26.19;20.11;100152.81;5014980;28;20112;-70
2022/08/21 11:36:31;;;;;;;8.52;3.78;;;;;;;26.14;20.18;100147.56;5015045;28;20058;-69